createdAt,value
2019-04-11T00:01:56.310Z,57.28
2019-04-11T00:04:26.201Z,57.35
2019-04-11T00:06:56.121Z,57.55
2019-04-11T00:09:26.920Z,57.54
2019-04-11T00:11:57.928Z,57.55
2019-04-11T00:14:27.603Z,57.71
2019-04-11T00:16:58.737Z,57.68
2019-04-11T00:19:29.401Z,57.74
2019-04-11T00:21:59.441Z,57.72
2019-04-11T00:24:29.273Z,57.74
2019-04-11T00:27:00.369Z,57.70
2019-04-11T00:29:30.275Z,57.86
2019-04-11T00:32:01.122Z,58.19
2019-04-11T00:34:31.112Z,58.50
2019-04-11T00:37:01.000Z,58.84
2019-04-11T00:39:31.862Z,59.14
2019-04-11T00:42:02.050Z,59.44
2019-04-11T00:44:32.769Z,59.74
2019-04-11T00:47:02.389Z,59.88
2019-04-11T00:49:32.587Z,60.15
2019-04-11T00:52:02.665Z,60.24
2019-04-11T00:54:33.160Z,60.37
2019-04-11T00:57:02.873Z,60.59
2019-04-11T00:59:32.514Z,60.83
2019-04-11T01:02:02.243Z,60.87
2019-04-11T01:04:32.733Z,60.88
2019-04-11T01:07:02.758Z,60.88
2019-04-11T01:09:32.673Z,61.17
2019-04-11T01:12:02.597Z,61.35
2019-04-11T01:14:32.196Z,61.51
2019-04-11T01:17:01.764Z,61.59
2019-04-11T01:19:31.347Z,61.71
2019-04-11T01:22:01.269Z,61.68
2019-04-11T01:24:31.523Z,61.61
2019-04-11T01:27:01.570Z,61.87
2019-04-11T01:29:31.407Z,62.12
2019-04-11T01:32:06.484Z,62.13
2019-04-11T01:34:37.128Z,62.31
2019-04-11T01:37:07.225Z,62.58
2019-04-11T01:39:41.242Z,62.71
2019-04-11T01:42:11.183Z,62.80
2019-04-11T01:44:41.001Z,62.63
2019-04-11T01:47:12.957Z,62.81
2019-04-11T01:49:42.684Z,62.78
2019-04-11T01:52:12.667Z,62.87
2019-04-11T01:54:42.275Z,63.04
2019-04-11T01:57:11.858Z,63.00
2019-04-11T01:59:41.758Z,63.12
2019-04-11T02:02:28.899Z,63.22
2019-04-11T02:05:00.769Z,63.21
2019-04-11T02:07:30.985Z,63.36
2019-04-11T02:10:00.714Z,63.50
2019-04-11T02:12:31.024Z,63.66
2019-04-11T02:15:00.818Z,63.75
2019-04-11T02:20:02.776Z,64.08
2019-04-11T02:22:49.215Z,64.31
2019-04-11T02:25:38.704Z,64.39
2019-04-11T02:28:10.626Z,64.45
2019-04-11T02:30:43.674Z,64.48
2019-04-11T02:33:15.327Z,64.42
2019-04-11T02:35:47.081Z,64.44
2019-04-11T02:38:16.583Z,64.63
2019-04-11T02:40:47.977Z,64.87
2019-04-11T02:43:18.051Z,65.10
2019-04-11T02:46:00.081Z,65.16
2019-04-11T02:48:20.655Z,65.12
2019-04-11T02:50:51.164Z,65.26
2019-04-11T02:53:22.085Z,65.56
2019-04-11T02:55:54.115Z,65.78
2019-04-11T02:58:25.541Z,65.90
2019-04-11T03:00:58.892Z,66.02
2019-04-11T03:03:27.477Z,66.11
2019-04-11T03:05:58.123Z,66.21
2019-04-11T03:08:31.788Z,66.28
2019-04-11T03:11:01.798Z,66.35
2019-04-11T03:13:33.441Z,66.52
2019-04-11T03:16:19.009Z,66.58
2019-04-11T03:18:53.197Z,66.58
2019-04-11T03:21:13.726Z,66.80
2019-04-11T03:23:39.744Z,66.85
2019-04-11T03:26:12.365Z,66.91
2019-04-11T03:28:46.262Z,67.02
2019-04-11T03:31:59.134Z,67.15
2019-04-11T03:39:12.010Z,67.69
2019-04-11T03:41:32.523Z,67.83
2019-04-11T03:44:00.392Z,67.86
2019-04-11T03:46:40.412Z,67.93
2019-04-11T03:49:03.903Z,68.06
2019-04-11T03:51:27.677Z,68.14
2019-04-11T03:53:59.167Z,68.26
2019-04-11T03:56:30.425Z,68.42
2019-04-11T03:59:01.416Z,68.48
2019-04-11T04:01:32.038Z,68.56
2019-04-11T04:04:02.800Z,68.74
2019-04-11T04:06:33.575Z,68.86
2019-04-11T04:09:04.255Z,68.87
2019-04-11T04:11:35.381Z,68.87
2019-04-11T04:14:08.142Z,68.98
2019-04-11T04:16:47.847Z,69.00
2019-04-11T04:19:25.118Z,69.12
2019-04-11T04:21:57.583Z,69.13
2019-04-11T04:24:34.169Z,69.20
2019-04-11T04:27:02.247Z,69.32
2019-04-11T04:29:36.338Z,69.32
2019-04-11T04:32:06.033Z,69.28
2019-04-11T04:34:36.759Z,69.30
2019-04-11T04:37:07.835Z,69.37
2019-04-11T04:39:39.760Z,69.42
2019-04-11T04:42:21.210Z,69.45
2019-04-11T04:44:42.867Z,69.31
2019-04-11T04:47:21.118Z,69.27
2019-04-11T04:49:45.876Z,69.36
2019-04-11T04:52:16.416Z,69.48
2019-04-11T04:54:46.533Z,69.54
2019-04-11T04:57:18.266Z,69.64
2019-04-11T04:59:48.979Z,69.75
2019-04-11T05:02:20.514Z,69.69
2019-04-11T05:04:49.818Z,69.76
2019-04-11T05:07:19.551Z,69.90
2019-04-11T05:09:50.373Z,69.95
2019-04-11T05:12:20.626Z,70.04
2019-04-11T05:14:51.781Z,70.18
2019-04-11T05:17:23.100Z,70.34
2019-04-11T05:19:52.895Z,70.38
2019-04-11T05:22:22.564Z,70.52
2019-04-11T05:24:52.413Z,70.55
2019-04-11T05:27:22.943Z,70.54
2019-04-11T05:29:53.558Z,70.60
2019-04-11T05:32:23.963Z,70.74
2019-04-11T05:34:54.427Z,70.83
2019-04-11T05:37:24.030Z,70.82
2019-04-11T05:39:53.895Z,70.77
2019-04-11T05:42:26.710Z,70.71
2019-04-11T05:44:54.884Z,70.50
2019-04-11T05:47:25.593Z,70.48
2019-04-11T05:49:59.095Z,70.26
2019-04-11T05:52:31.919Z,70.05
2019-04-11T05:55:02.820Z,69.91
2019-04-11T05:57:35.816Z,69.67
2019-04-11T06:00:08.168Z,69.76
2019-04-11T06:02:39.554Z,69.49
2019-04-11T06:05:23.826Z,69.56
2019-04-11T06:07:57.594Z,69.49
2019-04-11T06:10:28.345Z,69.27
2019-04-11T06:13:12.552Z,69.17
2019-04-11T06:15:47.232Z,69.07
2019-04-11T06:18:32.493Z,68.54
2019-04-11T06:21:02.561Z,68.17
2019-04-11T06:23:45.575Z,67.78
2019-04-11T06:26:18.745Z,67.13
2019-04-11T06:28:52.863Z,66.62
2019-04-11T06:31:42.256Z,66.44
2019-04-11T06:34:11.944Z,66.18
2019-04-11T06:36:56.910Z,66.15
2019-04-11T06:39:27.401Z,66.08
2019-04-11T06:42:09.271Z,66.01
2019-04-11T06:44:50.609Z,65.71
2019-04-11T06:47:38.472Z,65.47
2019-04-11T06:50:09.093Z,65.50
2019-04-11T06:52:41.679Z,65.05
2019-04-11T06:55:30.752Z,65.09
2019-04-11T06:58:08.040Z,64.85
2019-04-11T07:00:41.014Z,64.64
2019-04-11T07:03:19.607Z,64.33
2019-04-11T07:05:44.844Z,64.08
2019-04-11T07:08:16.160Z,64.21
2019-04-11T07:10:47.371Z,63.93
2019-04-11T07:13:18.681Z,63.71
2019-04-11T07:15:49.253Z,63.01
2019-04-11T07:18:37.724Z,63.40
2019-04-11T07:21:10.513Z,62.92
2019-04-11T07:23:59.660Z,63.02
2019-04-11T07:26:35.241Z,62.84
2019-04-11T07:29:21.554Z,62.84
2019-04-11T07:32:00.794Z,62.16
2019-04-11T07:34:48.338Z,61.33
2019-04-11T07:37:32.619Z,60.87
2019-04-11T07:40:15.564Z,60.23
2019-04-11T07:42:53.317Z,59.98
2019-04-11T07:45:41.684Z,58.63
2019-04-11T07:48:13.516Z,57.88
2019-04-11T07:50:44.399Z,57.42
2019-04-11T07:53:15.599Z,56.72
2019-04-11T07:55:46.600Z,56.35
2019-04-11T07:58:26.817Z,55.79
2019-04-11T08:01:01.637Z,55.96
2019-04-11T08:03:35.944Z,54.44
2019-04-11T08:06:07.568Z,53.41
2019-04-11T08:08:47.433Z,53.28
2019-04-11T08:11:21.263Z,53.74
2019-04-11T08:13:56.039Z,53.20
2019-04-11T08:16:27.325Z,53.13
2019-04-11T08:19:15.358Z,52.33
2019-04-11T08:22:03.097Z,51.95
2019-04-11T08:24:40.653Z,52.12
2019-04-11T08:27:30.179Z,52.11
2019-04-11T08:30:02.688Z,51.61
2019-04-11T08:32:44.148Z,50.57
2019-04-11T08:35:28.362Z,50.14
2019-04-11T08:38:01.008Z,49.38
2019-04-11T08:40:35.750Z,49.72
2019-04-11T08:43:08.196Z,49.17
2019-04-11T08:45:49.124Z,48.83
2019-04-11T08:48:19.306Z,48.77
2019-04-11T08:50:50.578Z,49.30
2019-04-11T08:53:20.659Z,48.57
2019-04-11T08:55:57.172Z,48.32
2019-04-11T08:58:28.900Z,46.90
2019-04-11T09:01:00.738Z,46.18
2019-04-11T09:03:42.019Z,47.37
2019-04-11T09:06:14.723Z,46.87
2019-04-11T09:08:50.970Z,47.10
2019-04-11T09:11:22.705Z,45.96
2019-04-11T09:14:10.175Z,45.09
2019-04-11T09:16:47.901Z,45.64
2019-04-11T09:19:35.336Z,45.75
2019-04-11T09:22:17.760Z,44.31
2019-04-11T09:24:58.933Z,43.80
2019-04-11T09:27:47.017Z,45.64
2019-04-11T09:30:35.036Z,45.80
2019-04-11T09:33:14.953Z,44.06
2019-04-11T09:35:57.570Z,44.24
2019-04-11T09:38:28.901Z,44.50
2019-04-11T09:41:09.155Z,43.73
2019-04-11T09:43:40.427Z,44.19
2019-04-11T09:46:12.526Z,45.18
2019-04-11T09:48:42.244Z,44.56
2019-04-11T09:51:17.825Z,42.54
2019-04-11T09:53:49.203Z,41.83
2019-04-11T09:56:36.755Z,40.75
2019-04-11T09:59:09.016Z,42.27
2019-04-11T10:01:56.137Z,41.82
2019-04-11T10:04:28.266Z,41.35
2019-04-11T10:07:01.896Z,42.28
2019-04-11T10:09:52.633Z,41.28
2019-04-11T10:12:38.289Z,41.56
2019-04-11T10:15:13.418Z,42.41
2019-04-11T10:17:44.919Z,42.21
2019-04-11T10:20:16.260Z,40.99
2019-04-11T10:23:05.255Z,40.29
2019-04-11T10:25:37.229Z,38.48
2019-04-11T10:28:09.224Z,39.85
2019-04-11T10:30:57.874Z,40.63
2019-04-11T10:33:33.119Z,40.30
2019-04-11T10:36:07.591Z,40.91
2019-04-11T10:38:39.054Z,39.06
2019-04-11T10:41:26.387Z,39.21
2019-04-11T10:43:57.159Z,39.00
2019-04-11T10:46:34.102Z,38.96
2019-04-11T10:49:05.423Z,39.80
2019-04-11T10:51:39.773Z,39.78
2019-04-11T10:54:11.423Z,39.44
2019-04-11T10:56:47.560Z,38.62
2019-04-11T10:59:17.566Z,39.62
2019-04-11T11:01:48.569Z,39.21
2019-04-11T11:04:23.450Z,39.42
2019-04-11T11:06:55.888Z,38.73
2019-04-11T11:09:37.230Z,38.44
2019-04-11T11:12:25.419Z,38.07
2019-04-11T11:15:11.962Z,38.38
2019-04-11T11:18:12.650Z,38.09
2019-04-11T11:20:38.549Z,38.31
2019-04-11T11:23:08.077Z,38.08
2019-04-11T11:25:39.247Z,38.57
2019-04-11T11:28:09.557Z,39.17
2019-04-11T11:30:47.389Z,39.52
2019-04-11T11:33:20.250Z,39.20
2019-04-11T11:35:50.045Z,39.10
2019-04-11T11:38:28.148Z,39.04
2019-04-11T11:41:18.474Z,39.17
2019-04-11T11:43:50.016Z,38.17
2019-04-11T11:46:25.688Z,38.50
2019-04-11T11:48:54.409Z,37.87
2019-04-11T11:51:31.171Z,37.17
2019-04-11T11:54:11.614Z,37.37
2019-04-11T11:56:44.358Z,37.82
2019-04-11T11:59:30.165Z,38.13
2019-04-11T12:02:00.840Z,38.94
2019-04-11T12:04:48.589Z,38.77
2019-04-11T12:07:20.968Z,39.61
2019-04-11T12:10:09.091Z,39.39
2019-04-11T12:12:40.302Z,39.40
2019-04-11T12:15:22.496Z,39.34
2019-04-11T12:18:13.043Z,39.68
2019-04-11T12:20:59.067Z,39.87
2019-04-11T12:23:42.820Z,40.23
2019-04-11T12:26:05.321Z,40.36
2019-04-11T12:28:41.552Z,39.80
2019-04-11T12:31:11.698Z,39.26
2019-04-11T12:33:59.751Z,39.91
2019-04-11T12:36:31.191Z,39.51
2019-04-11T12:39:10.231Z,39.25
2019-04-11T12:41:41.435Z,38.92
2019-04-11T12:44:29.459Z,39.63
2019-04-11T12:47:17.150Z,39.48
2019-04-11T12:49:52.793Z,38.89
2019-04-11T12:52:31.496Z,38.92
2019-04-11T12:55:03.227Z,38.49
2019-04-11T12:57:49.720Z,38.27
2019-04-11T13:00:19.279Z,38.77
2019-04-11T13:03:00.583Z,38.54
2019-04-11T13:05:35.124Z,39.37
2019-04-11T13:08:22.695Z,40.95
2019-04-11T13:10:52.279Z,40.99
2019-04-11T13:13:23.479Z,40.93
2019-04-11T13:15:55.255Z,39.92
2019-04-11T13:18:42.484Z,40.37
2019-04-11T13:21:19.305Z,39.79
2019-04-11T13:23:54.241Z,39.82
2019-04-11T13:26:42.100Z,39.41
2019-04-11T13:29:13.682Z,39.62
2019-04-11T13:31:45.686Z,39.00
2019-04-11T13:34:19.637Z,39.64
2019-04-11T13:37:02.575Z,39.31
2019-04-11T13:39:32.695Z,38.90
2019-04-11T13:42:19.561Z,38.74
2019-04-11T13:44:49.190Z,39.58
2019-04-11T13:47:25.367Z,38.65
2019-04-11T13:49:56.666Z,38.30
2019-04-11T13:52:39.620Z,39.30
2019-04-11T13:55:11.478Z,39.22
2019-04-11T13:57:58.746Z,39.38
2019-04-11T14:00:39.424Z,39.09
2019-04-11T14:03:10.680Z,38.79
2019-04-11T14:05:41.878Z,39.08
2019-04-11T14:08:13.100Z,38.63
2019-04-11T14:10:59.750Z,38.13
2019-04-11T14:13:35.363Z,38.67
2019-04-11T14:16:21.702Z,38.76
2019-04-11T14:19:07.037Z,38.64
2019-04-11T14:21:37.273Z,38.56
2019-04-11T14:24:17.144Z,38.41
2019-04-11T14:26:48.540Z,38.85
2019-04-11T14:29:22.175Z,39.49
2019-04-11T14:31:54.545Z,39.31
2019-04-11T14:34:25.884Z,38.82
2019-04-11T14:37:12.995Z,39.13
2019-04-11T14:39:49.929Z,38.49
2019-04-11T14:42:23.803Z,38.45
2019-04-11T14:44:55.226Z,38.50
2019-04-11T14:47:39.002Z,38.83
2019-04-11T14:50:11.216Z,39.13
2019-04-11T14:52:47.211Z,39.10
2019-04-11T14:55:19.006Z,39.46
2019-04-11T14:57:54.423Z,39.32
2019-04-11T15:00:26.055Z,38.46
2019-04-11T15:03:03.114Z,38.74
2019-04-11T15:05:49.600Z,38.79
2019-04-11T15:08:33.107Z,38.22
2019-04-11T15:11:13.878Z,38.47
2019-04-11T15:13:48.013Z,38.16
2019-04-11T15:16:24.611Z,38.05
2019-04-11T15:18:55.851Z,37.88
2019-04-11T15:21:27.046Z,37.93
2019-04-11T15:23:56.815Z,37.94
2019-04-11T15:26:27.997Z,38.07
2019-04-11T15:28:59.261Z,38.09
2019-04-11T15:31:39.857Z,37.38
2019-04-11T15:34:11.153Z,37.49
2019-04-11T15:36:42.358Z,37.56
2019-04-11T15:39:30.158Z,37.59
2019-04-11T15:42:02.390Z,37.77
2019-04-11T15:44:49.335Z,37.81
2019-04-11T15:47:20.718Z,37.69
2019-04-11T15:50:08.135Z,38.33
2019-04-11T15:52:39.754Z,38.23
2019-04-11T15:55:13.660Z,38.39
2019-04-11T15:57:44.103Z,38.57
2019-04-11T16:00:19.957Z,38.47
2019-04-11T16:02:55.028Z,38.54
2019-04-11T16:05:42.475Z,38.20
2019-04-11T16:08:13.723Z,38.46
2019-04-11T16:11:02.952Z,38.91
2019-04-11T16:13:49.775Z,39.18
2019-04-11T16:16:21.024Z,38.99
2019-04-11T16:19:01.814Z,39.57
2019-04-11T16:21:36.824Z,39.53
2019-04-11T16:24:11.167Z,39.42
2019-04-11T16:26:42.373Z,39.30
2019-04-11T16:29:29.541Z,39.13
2019-04-11T16:32:00.829Z,39.42
2019-04-11T16:34:48.566Z,39.96
2019-04-11T16:37:19.063Z,39.65
2019-04-11T16:40:02.476Z,39.78
2019-04-11T16:42:33.659Z,39.86
2019-04-11T16:45:05.311Z,39.73
2019-04-11T16:47:36.562Z,39.90
2019-04-11T16:50:06.824Z,40.23
2019-04-11T16:52:38.518Z,40.42
2019-04-11T16:55:10.034Z,40.67
2019-04-11T16:57:43.899Z,40.61
2019-04-11T17:00:13.617Z,41.10
2019-04-11T17:02:43.180Z,41.36
2019-04-11T17:05:12.917Z,41.17
2019-04-11T17:08:00.057Z,41.60
2019-04-11T17:10:47.482Z,41.09
2019-04-11T17:13:17.373Z,41.70
2019-04-11T17:15:46.924Z,42.45
2019-04-11T17:18:18.863Z,42.42
2019-04-11T17:20:47.780Z,42.76
2019-04-11T17:23:17.823Z,42.97
2019-04-11T17:25:52.468Z,43.03
2019-04-11T17:28:22.766Z,43.26
2019-04-11T17:30:50.080Z,43.42
2019-04-11T17:33:20.028Z,43.39
2019-04-11T17:35:49.674Z,43.39
2019-04-11T17:38:19.251Z,43.54
2019-04-11T17:40:48.883Z,43.59
2019-04-11T17:43:18.410Z,43.69
2019-04-11T17:45:47.954Z,43.20
2019-04-11T17:48:17.618Z,43.14
2019-04-11T17:50:47.180Z,42.84
2019-04-11T17:53:16.730Z,42.86
2019-04-11T17:55:48.058Z,42.89
2019-04-11T17:58:17.863Z,42.82
2019-04-11T18:00:55.103Z,42.79
2019-04-11T18:03:24.924Z,42.73
2019-04-11T18:06:03.703Z,43.14
2019-04-11T18:08:33.302Z,43.41
2019-04-11T18:11:02.890Z,43.45
2019-04-11T18:13:32.712Z,43.65
2019-04-11T18:16:02.331Z,43.98
2019-04-11T18:18:34.863Z,44.06
2019-04-11T18:21:06.982Z,44.05
2019-04-11T18:23:35.938Z,44.38
2019-04-11T18:26:05.976Z,44.39
2019-04-11T18:28:35.681Z,44.32
2019-04-11T18:31:05.289Z,44.44
2019-04-11T18:33:34.917Z,44.50
2019-04-11T18:36:04.638Z,44.63
2019-04-11T18:38:34.261Z,44.90
2019-04-11T18:41:03.813Z,44.86
2019-04-11T18:43:33.416Z,44.87
2019-04-11T18:46:02.942Z,45.04
2019-04-11T18:48:32.502Z,45.07
2019-04-11T18:51:02.075Z,45.38
2019-04-11T18:53:31.637Z,45.52
2019-04-11T18:56:01.729Z,45.46
2019-04-11T18:58:33.692Z,45.56
2019-04-11T19:01:03.426Z,45.67
2019-04-11T19:03:36.303Z,45.70
2019-04-11T19:06:04.602Z,45.57
2019-04-11T19:08:34.313Z,45.59
2019-04-11T19:11:04.239Z,45.80
2019-04-11T19:13:34.115Z,45.48
2019-04-11T19:16:03.642Z,45.55
2019-04-11T19:18:33.213Z,45.45
2019-04-11T19:21:03.854Z,45.52
2019-04-11T19:23:33.669Z,45.53
2019-04-11T19:26:03.291Z,45.50
2019-04-11T19:28:32.914Z,45.55
2019-04-11T19:31:02.543Z,45.47
2019-04-11T19:33:34.294Z,45.52
2019-04-11T19:36:03.711Z,45.59
2019-04-11T19:38:35.003Z,45.71
2019-04-11T19:41:04.639Z,45.76
2019-04-11T19:43:35.300Z,45.89
2019-04-11T19:46:05.243Z,45.96
2019-04-11T19:48:34.932Z,46.11
2019-04-11T19:51:04.485Z,46.21
2019-04-11T19:53:34.139Z,46.15
2019-04-11T19:56:05.915Z,46.29
2019-04-11T19:58:35.555Z,46.30
2019-04-11T20:01:05.236Z,46.36
2019-04-11T20:03:34.900Z,46.32
2019-04-11T20:06:04.475Z,46.49
2019-04-11T20:08:34.380Z,46.66
2019-04-11T20:11:04.143Z,46.79
2019-04-11T20:13:33.718Z,46.98
2019-04-11T20:16:03.342Z,47.11
2019-04-11T20:18:32.946Z,47.20
2019-04-11T20:21:07.319Z,47.33
2019-04-11T20:23:34.193Z,47.42
2019-04-11T20:26:03.783Z,47.73
2019-04-11T20:28:33.387Z,47.90
2019-04-11T20:31:02.959Z,48.22
2019-04-11T20:33:34.659Z,48.24
2019-04-11T20:36:03.763Z,48.37
2019-04-11T20:38:33.310Z,48.40
2019-04-11T20:41:03.126Z,48.39
2019-04-11T20:43:32.726Z,48.56
2019-04-11T20:46:03.156Z,48.72
2019-04-11T20:48:35.154Z,48.75
2019-04-11T20:51:04.012Z,48.92
2019-04-11T20:53:36.711Z,49.08
2019-04-11T20:56:04.910Z,49.17
2019-04-11T20:58:34.467Z,49.29
2019-04-11T21:01:04.753Z,49.50
2019-04-11T21:03:34.310Z,49.73
2019-04-11T21:06:04.879Z,49.86
2019-04-11T21:08:36.720Z,49.91
2019-04-11T21:11:05.820Z,50.01
2019-04-11T21:13:38.168Z,50.11
2019-04-11T21:16:06.629Z,50.09
2019-04-11T21:18:36.664Z,50.15
2019-04-11T21:21:06.704Z,50.33
2019-04-11T21:23:36.513Z,50.62
2019-04-11T21:26:06.248Z,50.86
2019-04-11T21:28:36.045Z,51.06
2019-04-11T21:31:05.700Z,51.09
2019-04-11T21:33:36.311Z,51.24
2019-04-11T21:36:06.294Z,51.57
2019-04-11T21:38:36.193Z,51.83
2019-04-11T21:41:06.673Z,51.96
2019-04-11T21:43:38.061Z,52.12
2019-04-11T21:46:08.380Z,52.13
2019-04-11T21:48:38.171Z,52.26
2019-04-11T21:51:11.379Z,52.37
2019-04-11T21:53:44.404Z,52.52
2019-04-11T21:56:11.931Z,52.77
2019-04-11T21:58:41.876Z,52.87
2019-04-11T22:01:15.240Z,53.05
2019-04-11T22:03:45.768Z,53.16
2019-04-11T22:06:15.692Z,53.40
2019-04-11T22:08:45.733Z,53.56
2019-04-11T22:11:15.545Z,53.69
2019-04-11T22:13:45.560Z,53.89
2019-04-11T22:16:15.574Z,54.06
2019-04-11T22:18:45.570Z,54.27
2019-04-11T22:21:15.529Z,54.31
2019-04-11T22:23:48.942Z,54.67
2019-04-11T22:26:17.773Z,54.76
2019-04-11T22:28:47.574Z,54.79
2019-04-11T22:31:17.373Z,55.08
2019-04-11T22:33:51.169Z,55.36
2019-04-11T22:36:22.498Z,55.51
2019-04-11T22:38:52.521Z,55.67
2019-04-11T22:41:22.074Z,55.59
2019-04-11T22:43:51.614Z,55.34
2019-04-11T22:46:21.257Z,55.21
2019-04-11T22:48:50.860Z,55.06
2019-04-11T22:51:20.451Z,55.15
2019-04-11T22:53:59.913Z,55.29
2019-04-11T22:56:21.545Z,55.41
2019-04-11T22:58:51.420Z,55.40
2019-04-11T23:01:20.986Z,55.40
2019-04-11T23:03:54.818Z,55.42
2019-04-11T23:06:24.314Z,55.42
2019-04-11T23:08:54.143Z,55.37
2019-04-11T23:11:23.674Z,55.34
2019-04-11T23:13:53.291Z,55.35
2019-04-11T23:16:23.038Z,55.22
2019-04-11T23:18:52.583Z,55.30
2019-04-11T23:21:22.166Z,55.38
2019-04-11T23:23:51.816Z,55.46
2019-04-11T23:26:21.487Z,55.51
2019-04-11T23:28:51.053Z,55.61
2019-04-11T23:31:21.099Z,55.51
2019-04-11T23:33:52.100Z,55.47
2019-04-11T23:36:22.191Z,55.54
2019-04-11T23:38:52.652Z,55.44
2019-04-11T23:41:23.130Z,55.33
2019-04-11T23:43:52.672Z,55.39
2019-04-11T23:46:22.202Z,55.33
2019-04-11T23:48:54.733Z,55.15
2019-04-11T23:51:26.232Z,55.13
2019-04-11T23:53:54.283Z,55.22
2019-04-11T23:56:23.905Z,55.27
2019-04-11T23:58:53.484Z,55.18
